sensor_id;sensor_type;location;lat;lon;timestamp;pressure;altitude;pressure_sealevel;temperature;humidity
7774;BME280;3931;42.260;23.116;2023-05-12T00:00:16;95209.00;;;12.80;100.00
7774;BME280;3931;42.260;23.116;2023-05-12T00:02:42;95240.00;;;13.19;100.00
7774;BME280;3931;42.260;23.116;2023-05-12T00:05:09;95280.59;;;12.85;100.00
7774;BME280;3931;42.260;23.116;2023-05-12T00:07:35;95273.31;;;13.19;100.00
7774;BME280;3931;42.260;23.116;2023-05-12T00:10:01;95264.44;;;13.02;100.00
7774;BME280;3931;42.260;23.116;2023-05-12T00:12:28;95254.97;;;13.21;100.00
7774;BME280;3931;42.260;23.116;2023-05-12T00:14:54;95284.88;;;12.86;100.00
7774;BME280;3931;42.260;23.116;2023-05-12T00:17:20;95302.09;;;13.03;100.00
7774;BME280;3931;42.260;23.116;2023-05-12T00:19:46;95297.13;;;12.98;100.00
7774;BME280;3931;42.260;23.116;2023-05-12T00:22:12;95318.66;;;12.85;100.00
7774;BME280;3931;42.260;23.116;2023-05-12T00:24:40;95279.44;;;12.74;100.00
7774;BME280;3931;42.260;23.116;2023-05-12T00:27:06;95244.84;;;12.35;100.00
7774;BME280;3931;42.260;23.116;2023-05-12T00:29:32;95245.94;;;12.68;100.00
7774;BME280;3931;42.260;23.116;2023-05-12T00:31:58;95075.31;;;12.24;100.00
7774;BME280;3931;42.260;23.116;2023-05-12T00:34:26;94975.00;;;12.07;100.00
7774;BME280;3931;42.260;23.116;2023-05-12T00:36:52;94966.16;;;11.91;100.00
7774;BME280;3931;42.260;23.116;2023-05-12T00:39:18;94965.09;;;11.97;100.00
7774;BME280;3931;42.260;23.116;2023-05-12T00:41:44;95047.94;;;12.44;100.00
7774;BME280;3931;42.260;23.116;2023-05-12T00:44:12;95100.94;;;11.97;100.00
7774;BME280;3931;42.260;23.116;2023-05-12T00:46:38;95060.72;;;12.41;100.00
7774;BME280;3931;42.260;23.116;2023-05-12T00:49:04;95014.19;;;11.57;100.00
7774;BME280;3931;42.260;23.116;2023-05-12T00:51:30;94941.97;;;11.82;100.00
7774;BME280;3931;42.260;23.116;2023-05-12T00:53:57;94963.59;;;12.14;100.00
7774;BME280;3931;42.260;23.116;2023-05-12T00:56:24;95083.72;;;12.51;100.00
7774;BME280;3931;42.260;23.116;2023-05-12T00:58:51;95154.47;;;12.56;100.00
7774;BME280;3931;42.260;23.116;2023-05-12T01:01:17;95178.38;;;12.53;100.00
7774;BME280;3931;42.260;23.116;2023-05-12T01:03:43;95242.38;;;12.59;100.00
7774;BME280;3931;42.260;23.116;2023-05-12T01:06:12;95242.19;;;12.53;100.00
7774;BME280;3931;42.260;23.116;2023-05-12T01:08:41;95260.03;;;12.43;100.00
7774;BME280;3931;42.260;23.116;2023-05-12T01:11:07;95236.88;;;12.15;100.00
7774;BME280;3931;42.260;23.116;2023-05-12T01:13:33;95136.19;;;11.97;100.00
7774;BME280;3931;42.260;23.116;2023-05-12T01:16:02;95152.56;;;12.04;100.00
7774;BME280;3931;42.260;23.116;2023-05-12T01:18:31;95205.03;;;12.20;100.00
7774;BME280;3931;42.260;23.116;2023-05-12T01:20:59;95249.97;;;12.15;100.00
7774;BME280;3931;42.260;23.116;2023-05-12T01:23:28;95252.34;;;12.25;100.00
7774;BME280;3931;42.260;23.116;2023-05-12T01:26:02;95248.81;;;12.25;100.00
7774;BME280;3931;42.260;23.116;2023-05-12T01:28:29;95218.31;;;12.25;100.00
7774;BME280;3931;42.260;23.116;2023-05-12T01:30:55;95255.50;;;12.36;100.00
7774;BME280;3931;42.260;23.116;2023-05-12T01:33:22;95218.00;;;12.23;100.00
7774;BME280;3931;42.260;23.116;2023-05-12T01:35:48;95232.88;;;12.16;100.00
7774;BME280;3931;42.260;23.116;2023-05-12T01:38:14;95205.81;;;12.20;100.00
7774;BME280;3931;42.260;23.116;2023-05-12T01:40:40;95224.19;;;12.27;100.00
7774;BME280;3931;42.260;23.116;2023-05-12T01:43:06;95200.09;;;11.72;100.00
7774;BME280;3931;42.260;23.116;2023-05-12T01:45:32;95061.59;;;11.59;100.00
7774;BME280;3931;42.260;23.116;2023-05-12T01:47:59;94999.13;;;11.58;100.00
7774;BME280;3931;42.260;23.116;2023-05-12T01:50:25;94964.38;;;11.35;100.00
7774;BME280;3931;42.260;23.116;2023-05-12T01:52:51;94897.72;;;11.60;100.00
7774;BME280;3931;42.260;23.116;2023-05-12T01:55:17;94896.72;;;11.45;100.00
7774;BME280;3931;42.260;23.116;2023-05-12T01:57:43;94905.25;;;11.60;100.00
7774;BME280;3931;42.260;23.116;2023-05-12T02:00:11;94914.31;;;11.60;100.00
7774;BME280;3931;42.260;23.116;2023-05-12T02:02:37;94890.50;;;11.32;100.00
7774;BME280;3931;42.260;23.116;2023-05-12T02:05:04;94842.75;;;11.59;100.00
7774;BME280;3931;42.260;23.116;2023-05-12T02:07:30;94860.09;;;11.41;100.00
7774;BME280;3931;42.260;23.116;2023-05-12T02:09:56;94837.94;;;11.50;100.00
7774;BME280;3931;42.260;23.116;2023-05-12T02:12:22;94837.56;;;11.21;100.00
7774;BME280;3931;42.260;23.116;2023-05-12T02:14:48;94745.56;;;11.08;100.00
7774;BME280;3931;42.260;23.116;2023-05-12T02:17:15;94778.38;;;11.37;100.00
7774;BME280;3931;42.260;23.116;2023-05-12T02:19:41;94821.19;;;11.63;100.00
7774;BME280;3931;42.260;23.116;2023-05-12T02:22:08;94878.41;;;11.48;100.00
7774;BME280;3931;42.260;23.116;2023-05-12T02:24:34;94789.59;;;11.24;100.00
7774;BME280;3931;42.260;23.116;2023-05-12T02:27:00;94783.16;;;10.87;100.00
7774;BME280;3931;42.260;23.116;2023-05-12T02:29:26;94792.19;;;10.79;100.00
7774;BME280;3931;42.260;23.116;2023-05-12T02:31:52;94722.09;;;10.73;100.00
7774;BME280;3931;42.260;23.116;2023-05-12T02:34:18;94654.53;;;11.10;100.00
7774;BME280;3931;42.260;23.116;2023-05-12T02:36:44;94747.44;;;11.38;100.00
7774;BME280;3931;42.260;23.116;2023-05-12T02:39:10;94767.94;;;10.83;100.00
7774;BME280;3931;42.260;23.116;2023-05-12T02:41:37;94676.50;;;10.86;100.00
7774;BME280;3931;42.260;23.116;2023-05-12T02:44:04;94702.59;;;10.85;100.00
7774;BME280;3931;42.260;23.116;2023-05-12T02:46:30;94590.41;;;10.84;100.00
7774;BME280;3931;42.260;23.116;2023-05-12T02:48:56;94878.97;;;11.74;100.00
7774;BME280;3931;42.260;23.116;2023-05-12T02:51:22;95047.16;;;11.64;100.00
7774;BME280;3931;42.260;23.116;2023-05-12T02:53:48;95094.41;;;11.60;100.00
7774;BME280;3931;42.260;23.116;2023-05-12T02:56:16;95117.78;;;11.59;100.00
7774;BME280;3931;42.260;23.116;2023-05-12T02:58:42;95154.91;;;11.84;100.00
7774;BME280;3931;42.260;23.116;2023-05-12T03:01:08;95211.13;;;11.84;100.00
7774;BME280;3931;42.260;23.116;2023-05-12T03:03:34;95078.66;;;11.27;100.00
7774;BME280;3931;42.260;23.116;2023-05-12T03:06:00;94964.25;;;10.65;100.00
7774;BME280;3931;42.260;23.116;2023-05-12T03:08:27;94909.34;;;11.07;100.00
7774;BME280;3931;42.260;23.116;2023-05-12T03:10:53;94930.69;;;11.06;100.00
7774;BME280;3931;42.260;23.116;2023-05-12T03:13:19;94883.09;;;10.89;100.00
7774;BME280;3931;42.260;23.116;2023-05-12T03:15:45;94887.47;;;11.39;100.00
7774;BME280;3931;42.260;23.116;2023-05-12T03:18:11;95002.94;;;11.51;100.00
7774;BME280;3931;42.260;23.116;2023-05-12T03:20:37;95053.13;;;11.10;100.00
7774;BME280;3931;42.260;23.116;2023-05-12T03:23:03;94921.88;;;11.20;100.00
7774;BME280;3931;42.260;23.116;2023-05-12T03:25:30;94912.53;;;11.36;100.00
7774;BME280;3931;42.260;23.116;2023-05-12T03:27:56;94894.41;;;11.04;100.00
7774;BME280;3931;42.260;23.116;2023-05-12T03:30:22;94827.63;;;10.93;100.00
7774;BME280;3931;42.260;23.116;2023-05-12T03:32:48;94755.06;;;10.98;100.00
7774;BME280;3931;42.260;23.116;2023-05-12T03:35:14;94718.75;;;10.87;100.00
7774;BME280;3931;42.260;23.116;2023-05-12T03:37:40;94766.97;;;11.26;100.00
7774;BME280;3931;42.260;23.116;2023-05-12T03:40:07;94834.72;;;11.52;100.00
7774;BME280;3931;42.260;23.116;2023-05-12T03:42:34;94940.09;;;11.39;100.00
7774;BME280;3931;42.260;23.116;2023-05-12T03:45:00;94876.69;;;11.41;100.00
7774;BME280;3931;42.260;23.116;2023-05-12T03:47:26;94865.38;;;11.66;100.00
7774;BME280;3931;42.260;23.116;2023-05-12T03:49:52;94862.19;;;11.28;100.00
7774;BME280;3931;42.260;23.116;2023-05-12T03:52:18;94746.66;;;11.11;100.00
7774;BME280;3931;42.260;23.116;2023-05-12T03:54:44;94682.50;;;11.03;100.00
7774;BME280;3931;42.260;23.116;2023-05-12T03:57:11;94768.56;;;11.45;100.00
7774;BME280;3931;42.260;23.116;2023-05-12T03:59:37;94863.34;;;11.49;100.00
7774;BME280;3931;42.260;23.116;2023-05-12T04:02:04;94886.84;;;11.35;100.00
7774;BME280;3931;42.260;23.116;2023-05-12T04:04:32;94852.25;;;11.00;100.00
7774;BME280;3931;42.260;23.116;2023-05-12T04:06:58;94861.28;;;11.22;100.00
7774;BME280;3931;42.260;23.116;2023-05-12T04:09:24;94915.91;;;11.31;100.00
7774;BME280;3931;42.260;23.116;2023-05-12T04:11:50;94938.19;;;11.27;100.00
7774;BME280;3931;42.260;23.116;2023-05-12T04:14:17;94941.38;;;11.17;100.00
7774;BME280;3931;42.260;23.116;2023-05-12T04:16:44;94925.38;;;11.21;100.00
7774;BME280;3931;42.260;23.116;2023-05-12T04:19:10;94932.88;;;11.11;100.00
7774;BME280;3931;42.260;23.116;2023-05-12T04:21:36;94963.56;;;11.26;100.00
7774;BME280;3931;42.260;23.116;2023-05-12T04:24:02;94975.72;;;11.28;100.00
7774;BME280;3931;42.260;23.116;2023-05-12T04:26:28;94953.22;;;11.17;100.00
7774;BME280;3931;42.260;23.116;2023-05-12T04:28:54;95029.31;;;11.96;100.00
7774;BME280;3931;42.260;23.116;2023-05-12T04:31:20;95030.53;;;11.33;100.00
7774;BME280;3931;42.260;23.116;2023-05-12T04:33:47;95066.97;;;11.53;100.00
7774;BME280;3931;42.260;23.116;2023-05-12T04:36:14;95038.22;;;11.29;100.00
7774;BME280;3931;42.260;23.116;2023-05-12T04:38:40;95054.47;;;11.27;100.00
7774;BME280;3931;42.260;23.116;2023-05-12T04:41:06;95071.69;;;11.22;100.00
7774;BME280;3931;42.260;23.116;2023-05-12T04:43:32;95023.81;;;11.43;100.00
7774;BME280;3931;42.260;23.116;2023-05-12T04:45:59;95108.25;;;11.82;100.00
7774;BME280;3931;42.260;23.116;2023-05-12T04:48:25;95193.84;;;11.80;100.00
7774;BME280;3931;42.260;23.116;2023-05-12T04:50:52;95188.00;;;11.44;100.00
7774;BME280;3931;42.260;23.116;2023-05-12T04:53:18;95206.97;;;12.10;100.00
7774;BME280;3931;42.260;23.116;2023-05-12T04:55:44;95374.97;;;12.42;100.00
7774;BME280;3931;42.260;23.116;2023-05-12T04:58:10;95445.84;;;11.75;100.00
7774;BME280;3931;42.260;23.116;2023-05-12T05:00:37;95289.97;;;12.05;100.00
7774;BME280;3931;42.260;23.116;2023-05-12T05:03:04;95405.81;;;12.66;100.00
7774;BME280;3931;42.260;23.116;2023-05-12T05:05:30;95477.47;;;13.01;100.00
7774;BME280;3931;42.260;23.116;2023-05-12T05:07:57;95512.94;;;12.97;100.00
7774;BME280;3931;42.260;23.116;2023-05-12T05:10:23;95530.78;;;13.31;100.00
7774;BME280;3931;42.260;23.116;2023-05-12T05:12:49;95569.72;;;13.52;100.00
7774;BME280;3931;42.260;23.116;2023-05-12T05:15:15;95588.56;;;13.01;100.00
7774;BME280;3931;42.260;23.116;2023-05-12T05:17:41;95569.31;;;12.85;100.00
7774;BME280;3931;42.260;23.116;2023-05-12T05:20:08;95431.56;;;11.76;100.00
7774;BME280;3931;42.260;23.116;2023-05-12T05:22:35;95459.88;;;12.95;100.00
7774;BME280;3931;42.260;23.116;2023-05-12T05:25:05;95527.97;;;13.43;100.00
7774;BME280;3931;42.260;23.116;2023-05-12T05:27:32;95558.91;;;13.33;100.00
7774;BME280;3931;42.260;23.116;2023-05-12T05:29:58;95579.03;;;13.02;100.00
7774;BME280;3931;42.260;23.116;2023-05-12T05:32:24;95558.44;;;13.12;100.00
7774;BME280;3931;42.260;23.116;2023-05-12T05:34:51;95558.34;;;13.03;100.00
7774;BME280;3931;42.260;23.116;2023-05-12T05:37:17;95568.91;;;13.08;100.00
7774;BME280;3931;42.260;23.116;2023-05-12T05:39:43;95581.59;;;13.31;100.00
7774;BME280;3931;42.260;23.116;2023-05-12T05:42:10;95600.25;;;13.31;100.00
7774;BME280;3931;42.260;23.116;2023-05-12T05:44:36;95607.44;;;13.62;100.00
7774;BME280;3931;42.260;23.116;2023-05-12T05:47:02;95592.88;;;12.68;100.00
7774;BME280;3931;42.260;23.116;2023-05-12T05:49:28;95609.13;;;13.17;100.00
7774;BME280;3931;42.260;23.116;2023-05-12T05:51:54;95619.84;;;13.27;100.00
7774;BME280;3931;42.260;23.116;2023-05-12T05:54:22;95618.97;;;13.30;100.00
7774;BME280;3931;42.260;23.116;2023-05-12T05:56:48;95638.53;;;12.55;100.00
7774;BME280;3931;42.260;23.116;2023-05-12T05:59:15;95627.88;;;13.47;100.00
7774;BME280;3931;42.260;23.116;2023-05-12T06:01:41;95650.50;;;13.58;100.00
7774;BME280;3931;42.260;23.116;2023-05-12T06:04:07;95651.91;;;13.84;100.00
7774;BME280;3931;42.260;23.116;2023-05-12T06:06:33;95663.31;;;13.77;100.00
7774;BME280;3931;42.260;23.116;2023-05-12T06:08:59;95663.44;;;13.52;100.00
7774;BME280;3931;42.260;23.116;2023-05-12T06:11:25;95679.19;;;13.98;100.00
7774;BME280;3931;42.260;23.116;2023-05-12T06:13:51;95684.16;;;13.81;100.00
7774;BME280;3931;42.260;23.116;2023-05-12T06:16:18;95680.41;;;13.97;100.00
7774;BME280;3931;42.260;23.116;2023-05-12T06:18:44;95680.38;;;13.66;100.00
7774;BME280;3931;42.260;23.116;2023-05-12T06:21:10;95691.69;;;13.94;100.00
7774;BME280;3931;42.260;23.116;2023-05-12T06:23:36;95702.16;;;14.11;100.00
7774;BME280;3931;42.260;23.116;2023-05-12T06:26:02;95714.53;;;14.32;100.00
7774;BME280;3931;42.260;23.116;2023-05-12T06:28:28;95725.13;;;14.46;100.00
7774;BME280;3931;42.260;23.116;2023-05-12T06:30:54;95740.13;;;14.05;100.00
7774;BME280;3931;42.260;23.116;2023-05-12T06:33:21;95735.09;;;13.91;100.00
7774;BME280;3931;42.260;23.116;2023-05-12T06:35:47;95733.22;;;14.31;100.00
7774;BME280;3931;42.260;23.116;2023-05-12T06:38:13;95738.00;;;14.09;100.00
7774;BME280;3931;42.260;23.116;2023-05-12T06:40:39;95723.56;;;14.23;100.00
7774;BME280;3931;42.260;23.116;2023-05-12T06:43:05;95732.25;;;14.04;100.00
7774;BME280;3931;42.260;23.116;2023-05-12T06:45:31;95738.97;;;13.94;100.00
7774;BME280;3931;42.260;23.116;2023-05-12T06:47:57;95731.53;;;13.90;100.00
7774;BME280;3931;42.260;23.116;2023-05-12T06:50:24;95724.81;;;14.01;100.00
7774;BME280;3931;42.260;23.116;2023-05-12T06:52:50;95737.56;;;14.32;100.00
7774;BME280;3931;42.260;23.116;2023-05-12T06:55:16;95735.16;;;14.43;100.00
7774;BME280;3931;42.260;23.116;2023-05-12T06:57:44;95730.56;;;14.28;100.00
7774;BME280;3931;42.260;23.116;2023-05-12T07:00:11;95734.00;;;14.63;100.00
7774;BME280;3931;42.260;23.116;2023-05-12T07:02:37;95691.09;;;13.55;100.00
7774;BME280;3931;42.260;23.116;2023-05-12T07:05:04;95684.75;;;13.98;100.00
7774;BME280;3931;42.260;23.116;2023-05-12T07:07:31;95688.31;;;13.99;100.00
7774;BME280;3931;42.260;23.116;2023-05-12T07:09:57;95667.41;;;13.51;100.00
7774;BME280;3931;42.260;23.116;2023-05-12T07:12:23;95672.91;;;14.28;100.00
7774;BME280;3931;42.260;23.116;2023-05-12T07:14:49;95692.66;;;14.21;100.00
7774;BME280;3931;42.260;23.116;2023-05-12T07:17:15;95702.84;;;14.24;100.00
7774;BME280;3931;42.260;23.116;2023-05-12T07:19:41;95709.25;;;14.65;100.00
7774;BME280;3931;42.260;23.116;2023-05-12T07:22:08;95733.78;;;14.26;100.00
7774;BME280;3931;42.260;23.116;2023-05-12T07:24:34;95712.59;;;14.29;100.00
7774;BME280;3931;42.260;23.116;2023-05-12T07:27:03;95712.75;;;14.87;100.00
7774;BME280;3931;42.260;23.116;2023-05-12T07:29:29;95723.94;;;14.96;100.00
7774;BME280;3931;42.260;23.116;2023-05-12T07:31:55;95722.28;;;15.16;100.00
7774;BME280;3931;42.260;23.116;2023-05-12T07:34:21;95735.75;;;14.38;100.00
7774;BME280;3931;42.260;23.116;2023-05-12T07:36:47;95729.09;;;13.93;100.00
7774;BME280;3931;42.260;23.116;2023-05-12T07:39:13;95691.69;;;13.94;100.00
7774;BME280;3931;42.260;23.116;2023-05-12T07:41:44;95695.97;;;15.17;100.00
7774;BME280;3931;42.260;23.116;2023-05-12T07:44:10;95736.94;;;15.57;100.00
7774;BME280;3931;42.260;23.116;2023-05-12T07:46:36;95738.84;;;14.40;100.00
7774;BME280;3931;42.260;23.116;2023-05-12T07:49:02;95707.84;;;14.29;100.00
7774;BME280;3931;42.260;23.116;2023-05-12T07:51:28;95717.25;;;15.42;100.00
7774;BME280;3931;42.260;23.116;2023-05-12T07:53:54;95728.91;;;16.04;100.00
7774;BME280;3931;42.260;23.116;2023-05-12T07:56:22;95736.78;;;16.15;100.00
7774;BME280;3931;42.260;23.116;2023-05-12T07:58:49;95751.31;;;16.46;100.00
7774;BME280;3931;42.260;23.116;2023-05-12T08:01:15;95755.13;;;16.07;100.00
7774;BME280;3931;42.260;23.116;2023-05-12T08:03:41;95749.78;;;16.54;100.00
7774;BME280;3931;42.260;23.116;2023-05-12T08:06:10;95751.28;;;16.82;100.00
7774;BME280;3931;42.260;23.116;2023-05-12T08:08:36;95754.28;;;16.60;100.00
7774;BME280;3931;42.260;23.116;2023-05-12T08:11:02;95753.88;;;16.86;100.00
7774;BME280;3931;42.260;23.116;2023-05-12T08:13:28;95755.31;;;16.72;98.88
7774;BME280;3931;42.260;23.116;2023-05-12T08:15:55;95759.75;;;16.00;100.00
7774;BME280;3931;42.260;23.116;2023-05-12T08:18:21;95748.31;;;17.18;100.00
7774;BME280;3931;42.260;23.116;2023-05-12T08:20:47;95746.97;;;17.37;92.61
7774;BME280;3931;42.260;23.116;2023-05-12T08:23:15;95760.50;;;16.28;100.00
7774;BME280;3931;42.260;23.116;2023-05-12T08:25:41;95757.72;;;15.92;100.00
7774;BME280;3931;42.260;23.116;2023-05-12T08:28:08;95751.97;;;16.23;100.00
7774;BME280;3931;42.260;23.116;2023-05-12T08:30:35;95765.16;;;16.31;100.00
7774;BME280;3931;42.260;23.116;2023-05-12T08:33:02;95757.72;;;16.10;100.00
7774;BME280;3931;42.260;23.116;2023-05-12T08:35:29;95748.16;;;16.80;100.00
7774;BME280;3931;42.260;23.116;2023-05-12T08:37:55;95759.72;;;16.46;100.00
7774;BME280;3931;42.260;23.116;2023-05-12T08:40:22;95754.00;;;17.00;95.58
7774;BME280;3931;42.260;23.116;2023-05-12T08:42:56;95754.00;;;17.00;97.18
7774;BME280;3931;42.260;23.116;2023-05-12T08:45:24;95755.53;;;17.01;99.44
7774;BME280;3931;42.260;23.116;2023-05-12T08:47:52;95760.09;;;17.55;93.55
7774;BME280;3931;42.260;23.116;2023-05-12T08:50:21;95761.25;;;17.39;91.03
7774;BME280;3931;42.260;23.116;2023-05-12T08:52:47;95752.19;;;17.54;92.41
7774;BME280;3931;42.260;23.116;2023-05-12T08:55:14;95748.09;;;17.31;95.41
7774;BME280;3931;42.260;23.116;2023-05-12T08:57:41;95758.69;;;17.60;94.21
7774;BME280;3931;42.260;23.116;2023-05-12T09:00:11;95746.06;;;17.64;93.20
7774;BME280;3931;42.260;23.116;2023-05-12T09:02:38;95758.69;;;17.60;93.36
7774;BME280;3931;42.260;23.116;2023-05-12T09:05:05;95746.59;;;18.30;84.43
7774;BME280;3931;42.260;23.116;2023-05-12T09:07:33;95749.50;;;17.59;90.07
7774;BME280;3931;42.260;23.116;2023-05-12T09:10:02;95746.97;;;17.37;93.40
7774;BME280;3931;42.260;23.116;2023-05-12T09:12:33;95744.94;;;17.38;93.79
7774;BME280;3931;42.260;23.116;2023-05-12T09:15:03;95748.94;;;17.46;91.77
7774;BME280;3931;42.260;23.116;2023-05-12T09:17:30;95745.28;;;17.64;91.02
7774;BME280;3931;42.260;23.116;2023-05-12T09:19:56;95745.53;;;18.13;83.78
7774;BME280;3931;42.260;23.116;2023-05-12T09:22:27;95749.50;;;17.83;84.69
7774;BME280;3931;42.260;23.116;2023-05-12T09:24:54;95749.97;;;17.81;86.76
7774;BME280;3931;42.260;23.116;2023-05-12T09:27:23;95751.47;;;18.06;84.66
7774;BME280;3931;42.260;23.116;2023-05-12T09:29:49;95741.84;;;18.45;83.82
7774;BME280;3931;42.260;23.116;2023-05-12T09:32:15;95750.22;;;19.04;81.15
7774;BME280;3931;42.260;23.116;2023-05-12T09:34:42;95744.38;;;19.22;77.51
7774;BME280;3931;42.260;23.116;2023-05-12T09:37:08;95756.13;;;19.06;76.64
7774;BME280;3931;42.260;23.116;2023-05-12T09:39:34;95752.13;;;17.86;83.91
7774;BME280;3931;42.260;23.116;2023-05-12T09:42:01;95752.75;;;18.05;82.52
7774;BME280;3931;42.260;23.116;2023-05-12T09:44:27;95755.16;;;17.74;86.98
7774;BME280;3931;42.260;23.116;2023-05-12T09:46:54;95756.72;;;18.80;84.35
7774;BME280;3931;42.260;23.116;2023-05-12T09:49:22;95758.06;;;18.85;79.85
7774;BME280;3931;42.260;23.116;2023-05-12T09:51:51;95755.56;;;18.72;81.53
7774;BME280;3931;42.260;23.116;2023-05-12T09:54:23;95757.47;;;18.96;81.27
7774;BME280;3931;42.260;23.116;2023-05-12T09:56:51;95750.06;;;19.42;79.58
7774;BME280;3931;42.260;23.116;2023-05-12T09:59:19;95750.31;;;19.79;75.26
7774;BME280;3931;42.260;23.116;2023-05-12T10:01:45;95750.34;;;19.64;76.02
7774;BME280;3931;42.260;23.116;2023-05-12T10:04:12;95756.13;;;19.55;78.21
7774;BME280;3931;42.260;23.116;2023-05-12T10:06:40;95757.59;;;18.72;80.67
7774;BME280;3931;42.260;23.116;2023-05-12T10:09:10;95754.50;;;19.34;79.19
7774;BME280;3931;42.260;23.116;2023-05-12T10:11:40;95752.25;;;19.03;78.99
7774;BME280;3931;42.260;23.116;2023-05-12T10:14:07;95744.41;;;19.07;78.25
7774;BME280;3931;42.260;23.116;2023-05-12T10:16:35;95745.41;;;19.74;75.61
7774;BME280;3931;42.260;23.116;2023-05-12T10:19:01;95742.53;;;20.08;73.53
7774;BME280;3931;42.260;23.116;2023-05-12T10:21:28;95744.50;;;20.22;71.68
7774;BME280;3931;42.260;23.116;2023-05-12T10:23:55;95741.34;;;19.40;75.80
7774;BME280;3931;42.260;23.116;2023-05-12T10:26:22;95749.34;;;19.61;78.02
7774;BME280;3931;42.260;23.116;2023-05-12T10:28:49;95752.91;;;19.82;74.25
7774;BME280;3931;42.260;23.116;2023-05-12T10:31:16;95746.28;;;18.52;80.24
7774;BME280;3931;42.260;23.116;2023-05-12T10:33:54;95743.22;;;18.26;84.14
7774;BME280;3931;42.260;23.116;2023-05-12T10:36:20;95738.88;;;18.25;83.13
7774;BME280;3931;42.260;23.116;2023-05-12T10:38:47;95733.66;;;18.18;84.65
7774;BME280;3931;42.260;23.116;2023-05-12T10:41:14;95735.09;;;18.13;84.49
7774;BME280;3931;42.260;23.116;2023-05-12T10:43:42;95739.31;;;17.94;86.48
7774;BME280;3931;42.260;23.116;2023-05-12T10:46:15;95742.78;;;18.04;85.59
7774;BME280;3931;42.260;23.116;2023-05-12T10:48:51;95739.47;;;19.17;78.92
7774;BME280;3931;42.260;23.116;2023-05-12T10:51:18;95742.63;;;18.46;83.38
7774;BME280;3931;42.260;23.116;2023-05-12T10:53:50;95736.34;;;18.65;81.53
7774;BME280;3931;42.260;23.116;2023-05-12T10:56:21;95736.63;;;20.06;74.77
7774;BME280;3931;42.260;23.116;2023-05-12T10:59:05;95736.25;;;18.74;79.85
7774;BME280;3931;42.260;23.116;2023-05-12T11:01:32;95738.81;;;18.34;81.74
7774;BME280;3931;42.260;23.116;2023-05-12T11:04:09;95744.03;;;18.41;83.45
7774;BME280;3931;42.260;23.116;2023-05-12T11:06:36;95746.53;;;18.98;79.57
7774;BME280;3931;42.260;23.116;2023-05-12T11:09:03;95746.97;;;18.61;81.48
7774;BME280;3931;42.260;23.116;2023-05-12T11:11:29;95746.84;;;18.41;81.04
7774;BME280;3931;42.260;23.116;2023-05-12T11:13:56;95748.91;;;20.09;75.08
7774;BME280;3931;42.260;23.116;2023-05-12T11:16:23;95757.34;;;20.29;72.22
7774;BME280;3931;42.260;23.116;2023-05-12T11:18:59;95752.47;;;20.09;73.70
7774;BME280;3931;42.260;23.116;2023-05-12T11:21:26;95756.72;;;19.79;73.81
7774;BME280;3931;42.260;23.116;2023-05-12T11:23:53;95751.66;;;19.83;74.41
7774;BME280;3931;42.260;23.116;2023-05-12T11:26:20;95741.94;;;20.04;72.63
7774;BME280;3931;42.260;23.116;2023-05-12T11:28:46;95756.19;;;20.41;71.05
7774;BME280;3931;42.260;23.116;2023-05-12T11:31:16;95754.78;;;19.50;71.25
7774;BME280;3931;42.260;23.116;2023-05-12T11:33:43;95755.00;;;19.67;74.84
7774;BME280;3931;42.260;23.116;2023-05-12T11:36:09;95752.09;;;19.41;73.45
7774;BME280;3931;42.260;23.116;2023-05-12T11:38:36;95764.00;;;19.36;75.72
7774;BME280;3931;42.260;23.116;2023-05-12T11:41:02;95766.31;;;19.38;75.46
7774;BME280;3931;42.260;23.116;2023-05-12T11:43:28;95763.63;;;19.43;75.13
7774;BME280;3931;42.260;23.116;2023-05-12T11:45:54;95758.97;;;19.40;74.91
7774;BME280;3931;42.260;23.116;2023-05-12T11:48:20;95758.06;;;18.85;75.66
7774;BME280;3931;42.260;23.116;2023-05-12T11:50:48;95760.19;;;18.75;77.97
7774;BME280;3931;42.260;23.116;2023-05-12T11:53:17;95760.44;;;19.21;76.01
7774;BME280;3931;42.260;23.116;2023-05-12T11:55:47;95761.09;;;19.45;75.18
7774;BME280;3931;42.260;23.116;2023-05-12T11:58:17;95763.56;;;18.94;76.68
7774;BME280;3931;42.260;23.116;2023-05-12T12:00:45;95753.03;;;17.36;85.31
7774;BME280;3931;42.260;23.116;2023-05-12T12:03:12;95767.47;;;17.91;85.03
7774;BME280;3931;42.260;23.116;2023-05-12T12:05:39;95768.56;;;18.08;83.86
7774;BME280;3931;42.260;23.116;2023-05-12T12:08:07;95760.03;;;17.64;85.56
7774;BME280;3931;42.260;23.116;2023-05-12T12:10:34;95759.31;;;17.55;88.26
7774;BME280;3931;42.260;23.116;2023-05-12T12:13:00;95758.44;;;17.72;86.64
7774;BME280;3931;42.260;23.116;2023-05-12T12:15:27;95759.63;;;18.18;82.74
7774;BME280;3931;42.260;23.116;2023-05-12T12:17:53;95759.72;;;17.86;80.81
7774;BME280;3931;42.260;23.116;2023-05-12T12:20:19;95762.19;;;17.69;83.54
7774;BME280;3931;42.260;23.116;2023-05-12T12:22:46;95762.75;;;17.59;85.08
7774;BME280;3931;42.260;23.116;2023-05-12T12:25:12;95765.03;;;17.84;83.70
7774;BME280;3931;42.260;23.116;2023-05-12T12:27:38;95752.47;;;17.79;83.26
7774;BME280;3931;42.260;23.116;2023-05-12T12:30:06;95760.22;;;17.84;84.46
7774;BME280;3931;42.260;23.116;2023-05-12T12:32:32;95746.81;;;17.32;87.17
7774;BME280;3931;42.260;23.116;2023-05-12T12:34:58;95758.50;;;16.98;93.00
7774;BME280;3931;42.260;23.116;2023-05-12T12:37:27;95748.47;;;16.82;90.76
7774;BME280;3931;42.260;23.116;2023-05-12T12:39:53;95742.63;;;16.71;94.68
7774;BME280;3931;42.260;23.116;2023-05-12T12:42:19;95745.72;;;16.64;95.86
7774;BME280;3931;42.260;23.116;2023-05-12T12:44:45;95737.03;;;17.04;93.24
7774;BME280;3931;42.260;23.116;2023-05-12T12:47:15;95739.75;;;16.89;95.28
7774;BME280;3931;42.260;23.116;2023-05-12T12:49:41;95733.72;;;17.14;93.47
7774;BME280;3931;42.260;23.116;2023-05-12T12:52:07;95737.19;;;17.09;92.70
7774;BME280;3931;42.260;23.116;2023-05-12T12:54:33;95737.50;;;17.35;94.42
7774;BME280;3931;42.260;23.116;2023-05-12T12:56:59;95725.84;;;16.71;93.60
7774;BME280;3931;42.260;23.116;2023-05-12T12:59:25;67566.41;;;-144.04;100.00